sensor_id;sensor_type;location;lat;lon;timestamp;P1;durP1;ratioP1;P2;durP2;ratioP2
75997;SDS011;64685;48.762;44.822;2024-02-04T00:01:47;8.13;;;2.45;;
75997;SDS011;64685;48.762;44.822;2024-02-04T00:06:50;6.70;;;2.20;;
75997;SDS011;64685;48.762;44.822;2024-02-04T00:11:53;5.97;;;1.88;;
75997;SDS011;64685;48.762;44.822;2024-02-04T00:16:56;4.40;;;2.22;;
75997;SDS011;64685;48.762;44.822;2024-02-04T00:21:58;10.10;;;2.38;;
75997;SDS011;64685;48.762;44.822;2024-02-04T00:27:01;9.60;;;3.00;;
75997;SDS011;64685;48.762;44.822;2024-02-04T00:32:04;6.10;;;2.35;;
75997;SDS011;64685;48.762;44.822;2024-02-04T00:37:07;6.03;;;2.20;;
75997;SDS011;64685;48.762;44.822;2024-02-04T00:42:10;4.88;;;1.90;;
75997;SDS011;64685;48.762;44.822;2024-02-04T00:47:13;4.70;;;1.33;;
75997;SDS011;64685;48.762;44.822;2024-02-04T00:52:16;3.95;;;1.45;;
75997;SDS011;64685;48.762;44.822;2024-02-04T00:57:18;7.20;;;2.05;;
75997;SDS011;64685;48.762;44.822;2024-02-04T01:02:21;6.50;;;2.20;;
75997;SDS011;64685;48.762;44.822;2024-02-04T01:07:24;7.88;;;1.95;;
75997;SDS011;64685;48.762;44.822;2024-02-04T01:12:26;6.10;;;2.53;;
75997;SDS011;64685;48.762;44.822;2024-02-04T01:17:29;4.03;;;1.33;;
75997;SDS011;64685;48.762;44.822;2024-02-04T01:22:33;6.30;;;2.10;;
75997;SDS011;64685;48.762;44.822;2024-02-04T01:27:35;7.90;;;2.70;;
75997;SDS011;64685;48.762;44.822;2024-02-04T01:32:38;5.53;;;2.03;;
75997;SDS011;64685;48.762;44.822;2024-02-04T01:37:41;6.63;;;2.55;;
75997;SDS011;64685;48.762;44.822;2024-02-04T01:42:45;7.45;;;2.15;;
75997;SDS011;64685;48.762;44.822;2024-02-04T01:47:48;7.82;;;2.50;;
75997;SDS011;64685;48.762;44.822;2024-02-04T01:52:51;7.22;;;1.98;;
75997;SDS011;64685;48.762;44.822;2024-02-04T01:57:54;6.22;;;2.38;;
75997;SDS011;64685;48.762;44.822;2024-02-04T02:02:58;8.10;;;2.45;;
75997;SDS011;64685;48.762;44.822;2024-02-04T02:08:03;10.82;;;3.13;;
75997;SDS011;64685;48.762;44.822;2024-02-04T02:13:07;9.07;;;2.88;;
75997;SDS011;64685;48.762;44.822;2024-02-04T02:18:14;6.20;;;2.30;;
75997;SDS011;64685;48.762;44.822;2024-02-04T02:23:31;7.03;;;1.83;;
75997;SDS011;64685;48.762;44.822;2024-02-04T02:28:38;4.40;;;1.77;;
75997;SDS011;64685;48.762;44.822;2024-02-04T02:33:42;7.03;;;2.67;;
75997;SDS011;64685;48.762;44.822;2024-02-04T02:38:46;7.15;;;2.65;;
75997;SDS011;64685;48.762;44.822;2024-02-04T02:44:20;8.10;;;2.70;;
75997;SDS011;64685;48.762;44.822;2024-02-04T02:49:23;8.13;;;2.40;;
75997;SDS011;64685;48.762;44.822;2024-02-04T02:54:26;4.88;;;1.33;;
75997;SDS011;64685;48.762;44.822;2024-02-04T02:59:29;7.45;;;2.83;;
75997;SDS011;64685;48.762;44.822;2024-02-04T03:04:32;6.13;;;2.05;;
75997;SDS011;64685;48.762;44.822;2024-02-04T03:09:35;4.95;;;2.22;;
75997;SDS011;64685;48.762;44.822;2024-02-04T03:14:38;7.35;;;2.85;;
75997;SDS011;64685;48.762;44.822;2024-02-04T03:19:41;6.95;;;2.33;;
75997;SDS011;64685;48.762;44.822;2024-02-04T03:24:45;5.82;;;2.10;;
75997;SDS011;64685;48.762;44.822;2024-02-04T03:29:48;5.82;;;2.90;;
75997;SDS011;64685;48.762;44.822;2024-02-04T03:34:51;4.72;;;2.35;;
75997;SDS011;64685;48.762;44.822;2024-02-04T03:39:54;4.28;;;1.90;;
75997;SDS011;64685;48.762;44.822;2024-02-04T03:44:57;6.57;;;2.20;;
75997;SDS011;64685;48.762;44.822;2024-02-04T03:50:00;5.00;;;1.55;;
75997;SDS011;64685;48.762;44.822;2024-02-04T03:55:03;6.97;;;2.40;;
75997;SDS011;64685;48.762;44.822;2024-02-04T04:00:07;4.82;;;2.03;;
75997;SDS011;64685;48.762;44.822;2024-02-04T04:05:13;4.90;;;1.73;;
75997;SDS011;64685;48.762;44.822;2024-02-04T04:10:16;7.03;;;2.40;;
75997;SDS011;64685;48.762;44.822;2024-02-04T04:15:19;4.68;;;2.13;;
75997;SDS011;64685;48.762;44.822;2024-02-04T04:20:22;4.70;;;1.92;;
75997;SDS011;64685;48.762;44.822;2024-02-04T04:25:24;6.20;;;2.58;;
75997;SDS011;64685;48.762;44.822;2024-02-04T04:30:27;5.90;;;2.60;;
75997;SDS011;64685;48.762;44.822;2024-02-04T04:35:30;6.10;;;2.78;;
75997;SDS011;64685;48.762;44.822;2024-02-04T04:40:33;10.02;;;3.85;;
75997;SDS011;64685;48.762;44.822;2024-02-04T04:45:35;5.47;;;2.53;;
75997;SDS011;64685;48.762;44.822;2024-02-04T04:50:38;5.07;;;1.98;;
75997;SDS011;64685;48.762;44.822;2024-02-04T04:55:40;5.53;;;2.00;;
75997;SDS011;64685;48.762;44.822;2024-02-04T05:00:43;6.70;;;2.63;;
75997;SDS011;64685;48.762;44.822;2024-02-04T05:05:46;9.38;;;3.30;;
75997;SDS011;64685;48.762;44.822;2024-02-04T05:10:49;5.18;;;2.33;;
75997;SDS011;64685;48.762;44.822;2024-02-04T05:15:51;5.70;;;2.10;;
75997;SDS011;64685;48.762;44.822;2024-02-04T05:20:54;6.50;;;2.65;;
75997;SDS011;64685;48.762;44.822;2024-02-04T05:25:57;7.18;;;2.35;;
75997;SDS011;64685;48.762;44.822;2024-02-04T05:31:01;5.38;;;2.10;;
75997;SDS011;64685;48.762;44.822;2024-02-04T05:36:05;4.55;;;1.83;;
75997;SDS011;64685;48.762;44.822;2024-02-04T05:41:07;5.55;;;1.88;;
75997;SDS011;64685;48.762;44.822;2024-02-04T05:46:10;6.50;;;2.22;;
75997;SDS011;64685;48.762;44.822;2024-02-04T05:51:13;6.30;;;2.60;;
75997;SDS011;64685;48.762;44.822;2024-02-04T05:56:15;2.83;;;1.48;;
75997;SDS011;64685;48.762;44.822;2024-02-04T06:01:18;5.70;;;2.28;;
75997;SDS011;64685;48.762;44.822;2024-02-04T06:06:21;5.07;;;1.92;;
75997;SDS011;64685;48.762;44.822;2024-02-04T06:11:23;5.30;;;1.92;;
75997;SDS011;64685;48.762;44.822;2024-02-04T06:16:26;5.60;;;2.05;;
75997;SDS011;64685;48.762;44.822;2024-02-04T06:21:29;4.57;;;1.80;;
75997;SDS011;64685;48.762;44.822;2024-02-04T06:26:31;4.63;;;2.08;;
75997;SDS011;64685;48.762;44.822;2024-02-04T06:31:34;5.35;;;2.13;;
75997;SDS011;64685;48.762;44.822;2024-02-04T06:36:37;4.75;;;1.75;;
75997;SDS011;64685;48.762;44.822;2024-02-04T06:41:40;3.70;;;1.88;;
75997;SDS011;64685;48.762;44.822;2024-02-04T06:46:43;4.25;;;2.00;;
75997;SDS011;64685;48.762;44.822;2024-02-04T06:51:45;2.60;;;1.15;;
75997;SDS011;64685;48.762;44.822;2024-02-04T06:56:50;2.22;;;1.08;;
75997;SDS011;64685;48.762;44.822;2024-02-04T07:01:54;4.85;;;1.60;;
75997;SDS011;64685;48.762;44.822;2024-02-04T07:06:57;4.20;;;1.30;;
75997;SDS011;64685;48.762;44.822;2024-02-04T07:12:00;5.15;;;1.70;;
75997;SDS011;64685;48.762;44.822;2024-02-04T07:17:03;3.10;;;1.48;;
75997;SDS011;64685;48.762;44.822;2024-02-04T07:22:05;1.95;;;1.20;;
75997;SDS011;64685;48.762;44.822;2024-02-04T07:27:08;4.20;;;1.45;;
75997;SDS011;64685;48.762;44.822;2024-02-04T07:32:11;3.53;;;1.73;;
75997;SDS011;64685;48.762;44.822;2024-02-04T07:37:14;4.85;;;2.35;;
75997;SDS011;64685;48.762;44.822;2024-02-04T07:42:17;4.07;;;1.55;;
75997;SDS011;64685;48.762;44.822;2024-02-04T07:47:20;4.75;;;2.25;;
75997;SDS011;64685;48.762;44.822;2024-02-04T07:52:23;4.28;;;2.03;;
75997;SDS011;64685;48.762;44.822;2024-02-04T07:57:26;4.10;;;2.15;;
75997;SDS011;64685;48.762;44.822;2024-02-04T08:02:28;5.00;;;2.25;;
75997;SDS011;64685;48.762;44.822;2024-02-04T08:07:31;7.95;;;2.92;;
75997;SDS011;64685;48.762;44.822;2024-02-04T08:12:34;6.07;;;3.17;;
75997;SDS011;64685;48.762;44.822;2024-02-04T08:17:37;6.50;;;3.03;;
75997;SDS011;64685;48.762;44.822;2024-02-04T08:22:39;9.38;;;3.90;;
75997;SDS011;64685;48.762;44.822;2024-02-04T08:27:42;11.23;;;4.55;;
75997;SDS011;64685;48.762;44.822;2024-02-04T08:32:45;9.52;;;4.68;;
75997;SDS011;64685;48.762;44.822;2024-02-04T08:37:48;10.20;;;4.57;;
75997;SDS011;64685;48.762;44.822;2024-02-04T08:42:50;8.38;;;3.30;;
75997;SDS011;64685;48.762;44.822;2024-02-04T08:47:53;10.73;;;5.43;;
75997;SDS011;64685;48.762;44.822;2024-02-04T08:52:56;12.25;;;4.93;;
75997;SDS011;64685;48.762;44.822;2024-02-04T08:57:58;9.52;;;4.00;;
75997;SDS011;64685;48.762;44.822;2024-02-04T09:03:02;10.60;;;5.22;;
75997;SDS011;64685;48.762;44.822;2024-02-04T09:08:04;12.45;;;6.03;;
75997;SDS011;64685;48.762;44.822;2024-02-04T09:13:07;13.65;;;6.25;;
75997;SDS011;64685;48.762;44.822;2024-02-04T09:18:10;13.68;;;5.15;;
75997;SDS011;64685;48.762;44.822;2024-02-04T09:23:13;12.88;;;5.03;;
75997;SDS011;64685;48.762;44.822;2024-02-04T09:28:16;9.63;;;4.70;;
75997;SDS011;64685;48.762;44.822;2024-02-04T09:33:18;10.95;;;4.85;;
75997;SDS011;64685;48.762;44.822;2024-02-04T09:38:21;11.43;;;4.68;;
75997;SDS011;64685;48.762;44.822;2024-02-04T09:43:24;7.30;;;3.55;;
75997;SDS011;64685;48.762;44.822;2024-02-04T09:48:32;8.13;;;3.53;;
75997;SDS011;64685;48.762;44.822;2024-02-04T09:53:36;9.10;;;3.53;;
75997;SDS011;64685;48.762;44.822;2024-02-04T09:58:45;8.40;;;4.18;;
75997;SDS011;64685;48.762;44.822;2024-02-04T10:03:48;7.00;;;3.38;;
75997;SDS011;64685;48.762;44.822;2024-02-04T10:08:51;5.28;;;2.10;;
75997;SDS011;64685;48.762;44.822;2024-02-04T10:13:54;6.43;;;2.90;;
75997;SDS011;64685;48.762;44.822;2024-02-04T10:18:57;7.00;;;2.75;;
75997;SDS011;64685;48.762;44.822;2024-02-04T10:24:00;5.53;;;2.25;;
75997;SDS011;64685;48.762;44.822;2024-02-04T10:29:03;5.82;;;2.40;;
75997;SDS011;64685;48.762;44.822;2024-02-04T10:34:06;4.80;;;2.30;;
75997;SDS011;64685;48.762;44.822;2024-02-04T10:39:09;7.65;;;3.75;;
75997;SDS011;64685;48.762;44.822;2024-02-04T10:44:11;11.35;;;4.80;;
75997;SDS011;64685;48.762;44.822;2024-02-04T10:49:19;13.02;;;5.60;;
75997;SDS011;64685;48.762;44.822;2024-02-04T10:54:22;13.57;;;6.32;;
75997;SDS011;64685;48.762;44.822;2024-02-04T10:59:30;14.98;;;7.15;;
75997;SDS011;64685;48.762;44.822;2024-02-04T11:04:34;13.40;;;7.07;;
75997;SDS011;64685;48.762;44.822;2024-02-04T11:09:39;18.67;;;8.05;;
75997;SDS011;64685;48.762;44.822;2024-02-04T11:14:42;15.95;;;7.10;;
75997;SDS011;64685;48.762;44.822;2024-02-04T11:20:13;22.20;;;8.32;;
75997;SDS011;64685;48.762;44.822;2024-02-04T11:25:47;12.52;;;5.65;;
75997;SDS011;64685;48.762;44.822;2024-02-04T11:31:01;18.17;;;8.32;;
75997;SDS011;64685;48.762;44.822;2024-02-04T11:36:05;15.00;;;7.72;;
75997;SDS011;64685;48.762;44.822;2024-02-04T11:46:18;14.95;;;5.75;;
75997;SDS011;64685;48.762;44.822;2024-02-04T11:51:23;18.42;;;7.70;;
75997;SDS011;64685;48.762;44.822;2024-02-04T11:56:26;18.13;;;7.95;;
75997;SDS011;64685;48.762;44.822;2024-02-04T12:01:30;17.40;;;8.15;;
75997;SDS011;64685;48.762;44.822;2024-02-04T12:06:38;15.32;;;5.80;;
75997;SDS011;64685;48.762;44.822;2024-02-04T12:11:44;17.50;;;8.07;;
75997;SDS011;64685;48.762;44.822;2024-02-04T12:16:47;16.35;;;8.52;;
75997;SDS011;64685;48.762;44.822;2024-02-04T12:21:50;11.68;;;5.63;;
75997;SDS011;64685;48.762;44.822;2024-02-04T12:26:53;15.02;;;6.15;;
75997;SDS011;64685;48.762;44.822;2024-02-04T12:31:59;20.02;;;8.18;;
75997;SDS011;64685;48.762;44.822;2024-02-04T12:37:02;17.45;;;7.78;;
75997;SDS011;64685;48.762;44.822;2024-02-04T12:42:05;17.55;;;7.95;;
75997;SDS011;64685;48.762;44.822;2024-02-04T12:47:08;13.35;;;6.30;;
75997;SDS011;64685;48.762;44.822;2024-02-04T12:52:11;21.05;;;9.02;;
75997;SDS011;64685;48.762;44.822;2024-02-04T12:57:23;14.32;;;6.93;;
75997;SDS011;64685;48.762;44.822;2024-02-04T13:02:29;14.57;;;6.72;;
75997;SDS011;64685;48.762;44.822;2024-02-04T13:07:33;16.15;;;7.18;;
75997;SDS011;64685;48.762;44.822;2024-02-04T13:12:36;19.70;;;8.32;;
75997;SDS011;64685;48.762;44.822;2024-02-04T13:17:41;20.92;;;9.27;;
75997;SDS011;64685;48.762;44.822;2024-02-04T13:22:44;15.05;;;7.63;;
75997;SDS011;64685;48.762;44.822;2024-02-04T13:27:47;15.90;;;8.55;;
75997;SDS011;64685;48.762;44.822;2024-02-04T13:32:53;14.10;;;6.53;;
75997;SDS011;64685;48.762;44.822;2024-02-04T13:37:56;13.55;;;6.10;;
75997;SDS011;64685;48.762;44.822;2024-02-04T13:42:59;16.60;;;5.97;;
75997;SDS011;64685;48.762;44.822;2024-02-04T13:48:02;19.15;;;8.25;;
75997;SDS011;64685;48.762;44.822;2024-02-04T13:53:06;18.73;;;9.65;;
75997;SDS011;64685;48.762;44.822;2024-02-04T13:58:08;20.63;;;8.57;;
75997;SDS011;64685;48.762;44.822;2024-02-04T14:03:11;17.25;;;7.97;;
75997;SDS011;64685;48.762;44.822;2024-02-04T14:08:15;15.75;;;8.02;;
75997;SDS011;64685;48.762;44.822;2024-02-04T14:13:18;15.52;;;7.75;;
75997;SDS011;64685;48.762;44.822;2024-02-04T14:18:21;17.38;;;7.75;;
75997;SDS011;64685;48.762;44.822;2024-02-04T14:23:23;15.27;;;7.50;;
75997;SDS011;64685;48.762;44.822;2024-02-04T14:28:26;17.48;;;8.57;;
75997;SDS011;64685;48.762;44.822;2024-02-04T14:33:29;15.55;;;7.43;;
75997;SDS011;64685;48.762;44.822;2024-02-04T14:38:31;16.33;;;7.57;;
75997;SDS011;64685;48.762;44.822;2024-02-04T14:43:34;20.63;;;9.00;;
75997;SDS011;64685;48.762;44.822;2024-02-04T14:48:37;18.08;;;7.35;;
75997;SDS011;64685;48.762;44.822;2024-02-04T14:53:44;14.38;;;6.20;;
75997;SDS011;64685;48.762;44.822;2024-02-04T14:58:47;18.92;;;8.30;;
75997;SDS011;64685;48.762;44.822;2024-02-04T15:03:50;19.90;;;9.32;;
75997;SDS011;64685;48.762;44.822;2024-02-04T15:08:52;18.20;;;8.52;;
75997;SDS011;64685;48.762;44.822;2024-02-04T15:13:56;20.27;;;8.57;;
75997;SDS011;64685;48.762;44.822;2024-02-04T15:18:59;19.02;;;8.27;;
75997;SDS011;64685;48.762;44.822;2024-02-04T15:24:03;18.15;;;8.27;;
75997;SDS011;64685;48.762;44.822;2024-02-04T15:29:07;15.00;;;6.20;;
75997;SDS011;64685;48.762;44.822;2024-02-04T15:34:11;15.88;;;7.32;;
75997;SDS011;64685;48.762;44.822;2024-02-04T15:39:15;11.65;;;4.72;;
75997;SDS011;64685;48.762;44.822;2024-02-04T15:44:22;13.52;;;5.25;;
75997;SDS011;64685;48.762;44.822;2024-02-04T15:49:26;10.07;;;4.10;;
75997;SDS011;64685;48.762;44.822;2024-02-04T15:54:32;9.40;;;3.80;;
75997;SDS011;64685;48.762;44.822;2024-02-04T16:04:59;7.95;;;2.60;;
75997;SDS011;64685;48.762;44.822;2024-02-04T16:10:04;6.95;;;2.60;;
75997;SDS011;64685;48.762;44.822;2024-02-04T16:15:07;5.13;;;2.00;;
75997;SDS011;64685;48.762;44.822;2024-02-04T16:20:13;7.03;;;2.20;;
75997;SDS011;64685;48.762;44.822;2024-02-04T16:25:16;5.22;;;2.00;;
75997;SDS011;64685;48.762;44.822;2024-02-04T16:30:20;7.70;;;2.65;;
75997;SDS011;64685;48.762;44.822;2024-02-04T16:35:26;6.28;;;2.45;;
75997;SDS011;64685;48.762;44.822;2024-02-04T16:40:29;6.97;;;2.15;;
75997;SDS011;64685;48.762;44.822;2024-02-04T16:45:31;9.60;;;3.25;;
75997;SDS011;64685;48.762;44.822;2024-02-04T16:50:34;8.98;;;3.67;;
75997;SDS011;64685;48.762;44.822;2024-02-04T16:55:37;9.40;;;3.75;;
75997;SDS011;64685;48.762;44.822;2024-02-04T17:00:40;13.98;;;5.03;;
75997;SDS011;64685;48.762;44.822;2024-02-04T17:05:46;10.45;;;5.00;;
75997;SDS011;64685;48.762;44.822;2024-02-04T17:10:58;12.65;;;4.88;;
75997;SDS011;64685;48.762;44.822;2024-02-04T17:16:22;13.48;;;5.50;;
75997;SDS011;64685;48.762;44.822;2024-02-04T17:21:30;13.80;;;5.20;;
75997;SDS011;64685;48.762;44.822;2024-02-04T17:26:47;13.80;;;5.97;;
75997;SDS011;64685;48.762;44.822;2024-02-04T17:31:54;16.50;;;6.13;;
75997;SDS011;64685;48.762;44.822;2024-02-04T17:36:57;16.15;;;6.40;;
75997;SDS011;64685;48.762;44.822;2024-02-04T17:42:01;16.55;;;7.13;;
75997;SDS011;64685;48.762;44.822;2024-02-04T17:47:07;15.10;;;6.30;;
75997;SDS011;64685;48.762;44.822;2024-02-04T17:52:13;14.30;;;6.80;;
75997;SDS011;64685;48.762;44.822;2024-02-04T17:57:15;14.73;;;6.20;;
75997;SDS011;64685;48.762;44.822;2024-02-04T18:02:20;15.93;;;6.45;;
75997;SDS011;64685;48.762;44.822;2024-02-04T18:07:39;13.68;;;6.03;;
75997;SDS011;64685;48.762;44.822;2024-02-04T18:12:43;14.77;;;6.00;;
75997;SDS011;64685;48.762;44.822;2024-02-04T18:17:46;14.23;;;6.18;;
75997;SDS011;64685;48.762;44.822;2024-02-04T18:22:50;12.77;;;5.57;;
75997;SDS011;64685;48.762;44.822;2024-02-04T18:27:53;12.30;;;5.63;;
75997;SDS011;64685;48.762;44.822;2024-02-04T18:32:56;13.40;;;5.07;;
75997;SDS011;64685;48.762;44.822;2024-02-04T18:37:59;12.55;;;5.45;;
75997;SDS011;64685;48.762;44.822;2024-02-04T18:43:05;10.77;;;4.80;;
75997;SDS011;64685;48.762;44.822;2024-02-04T18:48:08;10.68;;;4.30;;
75997;SDS011;64685;48.762;44.822;2024-02-04T18:53:11;11.48;;;5.55;;
75997;SDS011;64685;48.762;44.822;2024-02-04T18:58:14;13.63;;;5.38;;
75997;SDS011;64685;48.762;44.822;2024-02-04T19:03:16;12.90;;;5.38;;
75997;SDS011;64685;48.762;44.822;2024-02-04T19:08:20;16.75;;;6.15;;
75997;SDS011;64685;48.762;44.822;2024-02-04T19:13:22;12.82;;;4.85;;
75997;SDS011;64685;48.762;44.822;2024-02-04T19:18:25;15.10;;;5.53;;
75997;SDS011;64685;48.762;44.822;2024-02-04T19:23:28;13.77;;;5.10;;
75997;SDS011;64685;48.762;44.822;2024-02-04T19:28:30;15.70;;;5.70;;
75997;SDS011;64685;48.762;44.822;2024-02-04T19:33:35;14.27;;;5.32;;
75997;SDS011;64685;48.762;44.822;2024-02-04T19:38:39;13.20;;;5.55;;
75997;SDS011;64685;48.762;44.822;2024-02-04T19:43:41;16.33;;;6.30;;
75997;SDS011;64685;48.762;44.822;2024-02-04T19:48:44;13.10;;;5.53;;
75997;SDS011;64685;48.762;44.822;2024-02-04T19:53:48;13.90;;;5.57;;
75997;SDS011;64685;48.762;44.822;2024-02-04T19:58:54;11.45;;;4.78;;
75997;SDS011;64685;48.762;44.822;2024-02-04T20:03:57;12.40;;;5.80;;
75997;SDS011;64685;48.762;44.822;2024-02-04T20:09:00;13.23;;;4.45;;
75997;SDS011;64685;48.762;44.822;2024-02-04T20:14:03;12.40;;;4.93;;
75997;SDS011;64685;48.762;44.822;2024-02-04T20:19:06;11.00;;;4.85;;
75997;SDS011;64685;48.762;44.822;2024-02-04T20:24:09;9.10;;;4.43;;
75997;SDS011;64685;48.762;44.822;2024-02-04T20:29:12;11.32;;;3.92;;
75997;SDS011;64685;48.762;44.822;2024-02-04T20:34:16;12.55;;;5.15;;
75997;SDS011;64685;48.762;44.822;2024-02-04T20:39:20;12.20;;;4.55;;
75997;SDS011;64685;48.762;44.822;2024-02-04T20:44:24;13.55;;;5.18;;
75997;SDS011;64685;48.762;44.822;2024-02-04T20:49:27;13.25;;;5.20;;
75997;SDS011;64685;48.762;44.822;2024-02-04T20:54:30;12.73;;;5.72;;
75997;SDS011;64685;48.762;44.822;2024-02-04T20:59:33;11.07;;;4.35;;
75997;SDS011;64685;48.762;44.822;2024-02-04T21:04:35;12.57;;;5.57;;
75997;SDS011;64685;48.762;44.822;2024-02-04T21:09:38;11.18;;;4.95;;
75997;SDS011;64685;48.762;44.822;2024-02-04T21:14:41;14.60;;;5.07;;
75997;SDS011;64685;48.762;44.822;2024-02-04T21:19:43;9.48;;;4.15;;
75997;SDS011;64685;48.762;44.822;2024-02-04T21:24:47;12.50;;;4.47;;
75997;SDS011;64685;48.762;44.822;2024-02-04T21:29:51;12.75;;;4.35;;
75997;SDS011;64685;48.762;44.822;2024-02-04T21:34:54;8.82;;;3.08;;
75997;SDS011;64685;48.762;44.822;2024-02-04T21:39:57;13.35;;;4.68;;
75997;SDS011;64685;48.762;44.822;2024-02-04T21:45:00;10.52;;;3.70;;
75997;SDS011;64685;48.762;44.822;2024-02-04T21:50:04;6.88;;;2.97;;
75997;SDS011;64685;48.762;44.822;2024-02-04T22:00:12;10.40;;;3.55;;
75997;SDS011;64685;48.762;44.822;2024-02-04T22:05:15;13.20;;;3.92;;
75997;SDS011;64685;48.762;44.822;2024-02-04T22:10:18;17.35;;;5.05;;
75997;SDS011;64685;48.762;44.822;2024-02-04T22:15:21;14.32;;;4.95;;
75997;SDS011;64685;48.762;44.822;2024-02-04T22:20:24;10.27;;;4.57;;
75997;SDS011;64685;48.762;44.822;2024-02-04T22:25:27;13.40;;;5.53;;
75997;SDS011;64685;48.762;44.822;2024-02-04T22:30:30;12.85;;;5.10;;
75997;SDS011;64685;48.762;44.822;2024-02-04T22:35:33;12.35;;;5.20;;
75997;SDS011;64685;48.762;44.822;2024-02-04T22:40:36;15.50;;;6.15;;
75997;SDS011;64685;48.762;44.822;2024-02-04T22:45:38;16.83;;;6.78;;
75997;SDS011;64685;48.762;44.822;2024-02-04T22:50:41;14.25;;;5.88;;
75997;SDS011;64685;48.762;44.822;2024-02-04T22:55:44;18.17;;;7.93;;
75997;SDS011;64685;48.762;44.822;2024-02-04T23:00:47;17.92;;;7.35;;
75997;SDS011;64685;48.762;44.822;2024-02-04T23:05:51;16.73;;;6.75;;
75997;SDS011;64685;48.762;44.822;2024-02-04T23:10:54;18.95;;;7.03;;
75997;SDS011;64685;48.762;44.822;2024-02-04T23:15:56;13.50;;;5.35;;
75997;SDS011;64685;48.762;44.822;2024-02-04T23:20:59;12.80;;;5.57;;
75997;SDS011;64685;48.762;44.822;2024-02-04T23:26:05;17.92;;;6.30;;
75997;SDS011;64685;48.762;44.822;2024-02-04T23:31:07;11.60;;;5.03;;
75997;SDS011;64685;48.762;44.822;2024-02-04T23:36:11;12.88;;;4.78;;
75997;SDS011;64685;48.762;44.822;2024-02-04T23:41:14;12.70;;;5.70;;
75997;SDS011;64685;48.762;44.822;2024-02-04T23:46:16;12.55;;;4.97;;
75997;SDS011;64685;48.762;44.822;2024-02-04T23:51:19;14.52;;;5.85;;
75997;SDS011;64685;48.762;44.822;2024-02-04T23:56:22;11.98;;;4.35;;
